Time;durP1;ratioP1;P1;durP2;ratioP2;P2;SDS_P1;SDS_P2;PMS_P1;PMS_P2;Temp;Humidity;BMP_temperature;BMP_pressure;BME280_temperature;BME280_humidity;BME280_pressure;Samples;Min_cycle;Max_cycle;Signal;HPM_P1;HPM_P2
2022/03/25 00:01:00;;;;;;;85.73;40.27;;;;;;;;;;5022855;28;20186;-66
2022/03/25 00:03:26;;;;;;;89.07;40.77;;;;;;;;;;5034159;28;20181;-65
2022/03/25 00:05:51;;;;;;;93.83;41.73;;;;;;;;;;5039012;28;20264;-65
2022/03/25 00:08:17;;;;;;;92.10;42.33;;;;;;;;;;5035047;28;20217;-65
2022/03/25 00:10:43;;;;;;;90.20;41.80;;;;;;;;;;5033178;28;20190;-65
2022/03/25 00:13:09;;;;;;;91.97;41.47;;;;;;;;;;5023426;28;20281;-65
2022/03/25 00:15:35;;;;;;;96.53;42.77;;;;;;;;;;5037421;28;20240;-65
2022/03/25 00:18:00;;;;;;;93.53;41.97;;;;;;;;;;5038696;28;20182;-65
2022/03/25 00:20:25;;;;;;;90.67;42.07;;;;;;;;;;5025020;28;20189;-65
2022/03/25 00:22:51;;;;;;;92.43;43.17;;;;;;;;;;5029453;28;20280;-65
2022/03/25 00:25:16;;;;;;;100.67;43.70;;;;;;;;;;5031501;28;20289;-65
2022/03/25 00:27:42;;;;;;;101.90;43.80;;;;;;;;;;5031126;28;20181;-65
2022/03/25 00:30:08;;;;;;;97.93;42.70;;;;;;;;;;5027252;28;20186;-66
2022/03/25 00:32:35;;;;;;;98.13;43.57;;;;;;;;;;5027151;28;20333;-66
2022/03/25 00:35:00;;;;;;;99.00;43.90;;;;;;;;;;5028453;28;20261;-66
2022/03/25 00:37:26;;;;;;;95.73;43.27;;;;;;;;;;5018318;28;20250;-66
2022/03/25 00:39:52;;;;;;;97.87;43.67;;;;;;;;;;5034068;28;20189;-66
2022/03/25 00:42:17;;;;;;;88.07;40.77;;;;;;;;;;5029391;28;20675;-66
2022/03/25 00:44:44;;;;;;;98.37;43.93;;;;;;;;;;5022382;28;20220;-65
2022/03/25 00:47:09;;;;;;;101.57;44.13;;;;;;;;;;5023991;28;20202;-65
2022/03/25 00:49:35;;;;;;;96.13;44.00;;;;;;;;;;5016994;28;20222;-65
2022/03/25 00:52:00;;;;;;;105.30;44.60;;;;;;;;;;5013006;28;20214;-65
2022/03/25 00:54:27;;;;;;;95.87;43.67;;;;;;;;;;5028070;28;20618;-65
2022/03/25 00:56:52;;;;;;;97.20;43.63;;;;;;;;;;5022210;28;20201;-66
2022/03/25 00:59:18;;;;;;;93.83;42.93;;;;;;;;;;5038478;28;20455;-65
2022/03/25 01:01:43;;;;;;;100.33;43.63;;;;;;;;;;5017169;28;20230;-65
2022/03/25 01:04:09;;;;;;;97.80;44.23;;;;;;;;;;5026950;28;20179;-65
2022/03/25 01:06:35;;;;;;;97.47;43.17;;;;;;;;;;5021468;28;20202;-66
2022/03/25 01:09:05;;;;;;;101.57;43.63;;;;;;;;;;5024799;28;20187;-66
2022/03/25 01:11:30;;;;;;;97.93;43.80;;;;;;;;;;5021976;28;20269;-65
2022/03/25 01:13:57;;;;;;;93.47;42.10;;;;;;;;;;5026209;28;20309;-65
2022/03/25 01:16:22;;;;;;;105.57;45.17;;;;;;;;;;5031927;28;20214;-66
2022/03/25 01:18:47;;;;;;;102.40;44.03;;;;;;;;;;5025914;28;20186;-65
2022/03/25 01:21:13;;;;;;;97.07;43.80;;;;;;;;;;5025306;28;20504;-66
2022/03/25 01:23:38;;;;;;;95.10;43.70;;;;;;;;;;5033376;28;20193;-66
2022/03/25 01:26:03;;;;;;;101.07;42.60;;;;;;;;;;5026729;28;20209;-66
2022/03/25 01:28:34;;;;;;;97.67;43.87;;;;;;;;;;5024732;28;20182;-66
2022/03/25 01:31:00;;;;;;;96.07;42.93;;;;;;;;;;5016941;28;20202;-66
2022/03/25 01:33:27;;;;;;;101.73;45.10;;;;;;;;;;5025059;28;20178;-66
2022/03/25 01:35:52;;;;;;;102.10;42.93;;;;;;;;;;5024488;28;20594;-66
2022/03/25 01:38:18;;;;;;;97.60;43.73;;;;;;;;;;5025600;28;20269;-65
2022/03/25 01:40:43;;;;;;;100.73;44.93;;;;;;;;;;5042267;28;20185;-65
2022/03/25 01:43:08;;;;;;;94.77;44.80;;;;;;;;;;5026905;28;20239;-65
2022/03/25 01:45:36;;;;;;;99.03;44.30;;;;;;;;;;5025014;28;20586;-65
2022/03/25 01:48:07;;;;;;;103.20;44.07;;;;;;;;;;5013967;28;20286;-66
2022/03/25 01:50:33;;;;;;;107.87;44.60;;;;;;;;;;5018536;28;20214;-65
2022/03/25 01:52:58;;;;;;;99.97;45.53;;;;;;;;;;5024371;28;20225;-65
2022/03/25 01:55:28;;;;;;;105.93;46.00;;;;;;;;;;5019738;28;20175;-65
2022/03/25 01:57:58;;;;;;;104.43;45.10;;;;;;;;;;5027368;28;20586;-65
2022/03/25 02:00:28;;;;;;;105.77;45.80;;;;;;;;;;5019331;28;20182;-65
2022/03/25 02:02:53;;;;;;;112.50;47.77;;;;;;;;;;5020983;28;20190;-65
2022/03/25 02:05:19;;;;;;;102.10;45.37;;;;;;;;;;5020932;28;20210;-66
2022/03/25 02:07:45;;;;;;;114.23;47.87;;;;;;;;;;5021816;28;20189;-65
2022/03/25 02:10:11;;;;;;;113.37;47.60;;;;;;;;;;5021962;28;20217;-66
2022/03/25 02:12:36;;;;;;;108.37;47.30;;;;;;;;;;5012662;28;20249;-65
2022/03/25 02:15:05;;;;;;;113.13;48.90;;;;;;;;;;5022631;28;20588;-66
2022/03/25 02:17:30;;;;;;;114.20;47.37;;;;;;;;;;5028230;28;20182;-66
2022/03/25 02:19:55;;;;;;;114.73;47.97;;;;;;;;;;5030353;28;20185;-66
2022/03/25 02:22:22;;;;;;;112.40;47.50;;;;;;;;;;5024116;28;20186;-66
2022/03/25 02:24:49;;;;;;;109.40;47.50;;;;;;;;;;5018550;28;20190;-66
2022/03/25 02:27:16;;;;;;;110.90;48.20;;;;;;;;;;5025911;28;20200;-66
2022/03/25 02:29:42;;;;;;;113.53;49.40;;;;;;;;;;5024169;28;20216;-65
2022/03/25 02:32:07;;;;;;;108.07;48.93;;;;;;;;;;5022400;28;20230;-66
2022/03/25 02:34:33;;;;;;;117.87;50.27;;;;;;;;;;5027442;28;20538;-65
2022/03/25 02:36:58;;;;;;;121.67;51.57;;;;;;;;;;5028569;28;20183;-65
2022/03/25 02:39:23;;;;;;;119.47;49.40;;;;;;;;;;5031013;28;20205;-65
2022/03/25 02:41:49;;;;;;;115.83;50.50;;;;;;;;;;5020606;28;20209;-65
2022/03/25 02:44:14;;;;;;;124.57;52.00;;;;;;;;;;5027225;28;20189;-66
2022/03/25 02:46:40;;;;;;;116.47;49.37;;;;;;;;;;5035849;28;20704;-66
2022/03/25 02:49:05;;;;;;;124.47;49.93;;;;;;;;;;5029458;28;20221;-65
2022/03/25 02:51:31;;;;;;;112.40;49.67;;;;;;;;;;5025227;28;21055;-66
2022/03/25 02:53:56;;;;;;;114.50;50.07;;;;;;;;;;5025627;28;20273;-65
2022/03/25 02:56:22;;;;;;;113.13;48.47;;;;;;;;;;5025642;28;20190;-66
2022/03/25 02:58:47;;;;;;;122.23;50.53;;;;;;;;;;5026645;28;20212;-65
2022/03/25 03:01:13;;;;;;;121.13;51.07;;;;;;;;;;5020367;28;20186;-66
2022/03/25 03:03:40;;;;;;;129.40;50.27;;;;;;;;;;5028800;28;20273;-66
2022/03/25 03:06:06;;;;;;;126.20;50.60;;;;;;;;;;5022082;28;20203;-65
2022/03/25 03:08:31;;;;;;;123.43;51.87;;;;;;;;;;5022016;28;20711;-65
2022/03/25 03:10:57;;;;;;;133.97;52.97;;;;;;;;;;5027270;28;20189;-65
2022/03/25 03:13:22;;;;;;;131.50;53.37;;;;;;;;;;5020838;28;20229;-65
2022/03/25 03:15:48;;;;;;;132.53;53.27;;;;;;;;;;5031807;28;20177;-65
2022/03/25 03:18:14;;;;;;;134.67;53.23;;;;;;;;;;5019144;28;20636;-65
2022/03/25 03:20:40;;;;;;;142.50;54.33;;;;;;;;;;5026110;28;20272;-65
2022/03/25 03:23:07;;;;;;;136.23;54.03;;;;;;;;;;5039953;28;20294;-65
2022/03/25 03:25:33;;;;;;;139.97;55.13;;;;;;;;;;5034999;28;20529;-67
2022/03/25 03:27:59;;;;;;;140.17;55.50;;;;;;;;;;5021567;28;20190;-66
2022/03/25 03:30:24;;;;;;;144.93;54.57;;;;;;;;;;5021529;28;20253;-65
2022/03/25 03:32:57;;;;;;;138.00;54.00;;;;;;;;;;5038778;28;20193;-65
2022/03/25 03:35:25;;;;;;;135.23;52.70;;;;;;;;;;5030414;28;20637;-65
2022/03/25 03:37:52;;;;;;;135.53;52.80;;;;;;;;;;5026535;28;20670;-65
2022/03/25 03:40:17;;;;;;;134.17;52.93;;;;;;;;;;5028277;28;20194;-65
2022/03/25 03:42:44;;;;;;;132.93;52.90;;;;;;;;;;5024083;28;20253;-65
2022/03/25 03:45:10;;;;;;;140.80;53.97;;;;;;;;;;5026464;28;20237;-66
2022/03/25 03:47:36;;;;;;;135.97;51.47;;;;;;;;;;5019477;28;20647;-67
2022/03/25 03:50:03;;;;;;;136.53;53.53;;;;;;;;;;5025550;28;20286;-66
2022/03/25 03:52:30;;;;;;;138.53;53.57;;;;;;;;;;5023357;28;20273;-65
2022/03/25 03:54:55;;;;;;;144.87;55.80;;;;;;;;;;5015011;28;20236;-65
2022/03/25 03:57:21;;;;;;;136.77;54.47;;;;;;;;;;5037530;28;20190;-65
2022/03/25 03:59:46;;;;;;;143.17;54.63;;;;;;;;;;5012253;28;20638;-65
2022/03/25 04:02:11;;;;;;;142.17;53.60;;;;;;;;;;5026181;28;20482;-65
2022/03/25 04:04:37;;;;;;;134.93;53.13;;;;;;;;;;5015768;28;20621;-65
2022/03/25 04:07:02;;;;;;;129.30;51.47;;;;;;;;;;5025924;28;20256;-65
2022/03/25 04:09:28;;;;;;;130.60;52.13;;;;;;;;;;5028563;28;20391;-66
2022/03/25 04:11:54;;;;;;;131.43;49.97;;;;;;;;;;5036760;28;20228;-65
2022/03/25 04:14:20;;;;;;;132.80;51.40;;;;;;;;;;5022268;28;20221;-65
2022/03/25 04:16:46;;;;;;;145.50;53.30;;;;;;;;;;5029941;28;20261;-65
2022/03/25 04:19:11;;;;;;;130.17;50.23;;;;;;;;;;5038546;28;20265;-65
2022/03/25 04:21:37;;;;;;;135.57;52.23;;;;;;;;;;5032389;28;20478;-65
2022/03/25 04:24:02;;;;;;;132.90;52.60;;;;;;;;;;5041943;28;20181;-65
2022/03/25 04:26:28;;;;;;;129.90;52.47;;;;;;;;;;5036263;28;20554;-65
2022/03/25 04:28:53;;;;;;;128.80;50.07;;;;;;;;;;5018716;28;20190;-65
2022/03/25 04:31:19;;;;;;;125.83;50.47;;;;;;;;;;5031387;28;20233;-65
2022/03/25 04:33:45;;;;;;;121.73;49.67;;;;;;;;;;5033066;28;20212;-65
2022/03/25 04:36:10;;;;;;;118.97;49.93;;;;;;;;;;5034465;28;20650;-65
2022/03/25 04:38:36;;;;;;;123.50;49.50;;;;;;;;;;5042353;28;20277;-66
2022/03/25 04:41:01;;;;;;;134.83;50.43;;;;;;;;;;5041546;28;20182;-65
2022/03/25 04:43:27;;;;;;;121.70;50.33;;;;;;;;;;5040112;28;20465;-66
2022/03/25 04:45:52;;;;;;;131.50;50.83;;;;;;;;;;5040748;28;20292;-66
2022/03/25 04:48:17;;;;;;;130.67;51.30;;;;;;;;;;5038797;28;20192;-66
2022/03/25 04:50:44;;;;;;;133.67;49.13;;;;;;;;;;5041294;28;20341;-66
2022/03/25 04:53:09;;;;;;;140.57;52.53;;;;;;;;;;5038085;28;20197;-66
2022/03/25 04:55:35;;;;;;;131.30;50.90;;;;;;;;;;5041081;28;20212;-66
2022/03/25 04:58:00;;;;;;;131.17;50.23;;;;;;;;;;5027179;28;20198;-64
2022/03/25 05:00:26;;;;;;;135.43;51.50;;;;;;;;;;5014063;28;20591;-66
2022/03/25 05:02:52;;;;;;;137.63;52.50;;;;;;;;;;5028025;28;20232;-65
2022/03/25 05:05:17;;;;;;;139.30;54.73;;;;;;;;;;5036844;28;20307;-65
2022/03/25 05:07:45;;;;;;;133.63;54.53;;;;;;;;;;5042421;28;20177;-65
2022/03/25 05:10:12;;;;;;;140.07;54.10;;;;;;;;;;5034733;28;20174;-65
2022/03/25 05:12:38;;;;;;;141.43;53.83;;;;;;;;;;5022637;28;20304;-66
2022/03/25 05:15:04;;;;;;;147.13;53.23;;;;;;;;;;5012530;28;20256;-66
2022/03/25 05:17:30;;;;;;;150.27;54.83;;;;;;;;;;5029973;28;20232;-66
2022/03/25 05:19:55;;;;;;;147.67;55.30;;;;;;;;;;5028434;28;20181;-65
2022/03/25 05:22:21;;;;;;;156.17;55.27;;;;;;;;;;5028398;28;20179;-65
2022/03/25 05:24:46;;;;;;;141.83;54.30;;;;;;;;;;5031258;28;20269;-65
2022/03/25 05:27:11;;;;;;;142.30;53.53;;;;;;;;;;5027471;28;20268;-66
2022/03/25 05:29:37;;;;;;;138.83;51.63;;;;;;;;;;5013937;28;20214;-66
2022/03/25 05:32:03;;;;;;;147.57;53.37;;;;;;;;;;5015638;28;20194;-65
2022/03/25 05:34:28;;;;;;;143.83;54.37;;;;;;;;;;5017492;28;20206;-65
2022/03/25 05:36:53;;;;;;;133.93;52.80;;;;;;;;;;5026561;28;20175;-65
2022/03/25 05:39:19;;;;;;;139.30;53.27;;;;;;;;;;5031564;28;20533;-65
2022/03/25 05:41:44;;;;;;;143.13;53.20;;;;;;;;;;5037261;28;20186;-65
2022/03/25 05:44:11;;;;;;;145.37;55.10;;;;;;;;;;5036733;28;20182;-66
2022/03/25 05:46:38;;;;;;;157.93;55.53;;;;;;;;;;5040257;28;20193;-66
2022/03/25 05:49:04;;;;;;;149.03;55.33;;;;;;;;;;5042008;28;20188;-66
2022/03/25 05:51:29;;;;;;;146.23;54.50;;;;;;;;;;5035146;28;20182;-66
2022/03/25 05:53:54;;;;;;;157.50;53.40;;;;;;;;;;5040463;28;20201;-65
2022/03/25 05:56:20;;;;;;;151.30;53.53;;;;;;;;;;5042066;28;20177;-66
2022/03/25 05:58:46;;;;;;;151.40;52.37;;;;;;;;;;5038084;28;20200;-66
2022/03/25 06:01:11;;;;;;;154.03;49.87;;;;;;;;;;5031372;28;20204;-66
2022/03/25 06:03:37;;;;;;;147.47;47.70;;;;;;;;;;5035126;28;20181;-66
2022/03/25 06:06:05;;;;;;;137.83;48.87;;;;;;;;;;5042066;28;20284;-67
2022/03/25 06:08:30;;;;;;;125.73;47.77;;;;;;;;;;5035507;28;20616;-67
2022/03/25 06:10:56;;;;;;;114.23;47.83;;;;;;;;;;5038254;28;20257;-65
2022/03/25 06:13:23;;;;;;;126.17;47.70;;;;;;;;;;5023231;28;20321;-66
2022/03/25 06:15:48;;;;;;;116.97;48.83;;;;;;;;;;5041539;28;20427;-66
2022/03/25 06:18:14;;;;;;;112.13;48.10;;;;;;;;;;5036790;28;20327;-65
2022/03/25 06:20:39;;;;;;;126.87;47.40;;;;;;;;;;5024152;28;20261;-65
2022/03/25 06:23:05;;;;;;;109.73;44.43;;;;;;;;;;5025925;28;20243;-66
2022/03/25 06:25:30;;;;;;;109.47;43.57;;;;;;;;;;5028752;28;20537;-66
2022/03/25 06:28:01;;;;;;;115.83;45.83;;;;;;;;;;5027882;28;20191;-66
2022/03/25 06:30:31;;;;;;;114.40;44.10;;;;;;;;;;5040137;28;20525;-66
2022/03/25 06:32:57;;;;;;;104.10;43.93;;;;;;;;;;5038905;28;20177;-66
2022/03/25 06:35:23;;;;;;;101.77;43.57;;;;;;;;;;5041379;28;20211;-66
2022/03/25 06:37:49;;;;;;;103.53;44.57;;;;;;;;;;5044040;28;20188;-66
2022/03/25 06:40:15;;;;;;;98.67;42.43;;;;;;;;;;5036913;28;20192;-66
2022/03/25 06:42:42;;;;;;;107.23;45.17;;;;;;;;;;5034535;28;20273;-66
2022/03/25 06:45:10;;;;;;;110.47;46.07;;;;;;;;;;5022679;28;20205;-66
2022/03/25 06:47:37;;;;;;;103.40;44.20;;;;;;;;;;5026931;28;20715;-66
2022/03/25 06:50:06;;;;;;;101.73;42.60;;;;;;;;;;5033216;28;20192;-65
2022/03/25 06:52:32;;;;;;;107.80;44.83;;;;;;;;;;5025107;28;20200;-65
2022/03/25 06:54:58;;;;;;;104.00;42.73;;;;;;;;;;5034454;28;20193;-66
2022/03/25 06:57:24;;;;;;;111.63;43.43;;;;;;;;;;5030496;28;20182;-66
2022/03/25 06:59:49;;;;;;;100.93;42.67;;;;;;;;;;5033482;28;20188;-66
2022/03/25 07:02:15;;;;;;;118.77;47.00;;;;;;;;;;5022254;28;20341;-65
2022/03/25 07:04:41;;;;;;;109.23;46.43;;;;;;;;;;5036674;28;20236;-65
2022/03/25 07:07:07;;;;;;;108.17;44.73;;;;;;;;;;5030316;28;20211;-66
2022/03/25 07:09:33;;;;;;;122.33;48.67;;;;;;;;;;5043600;28;20193;-65
2022/03/25 07:12:00;;;;;;;118.47;45.50;;;;;;;;;;5040336;28;20648;-65
2022/03/25 07:14:26;;;;;;;118.77;48.63;;;;;;;;;;5042713;28;20580;-65
2022/03/25 07:16:52;;;;;;;110.37;46.70;;;;;;;;;;5046439;28;20324;-65
2022/03/25 07:19:17;;;;;;;120.80;49.17;;;;;;;;;;5041898;28;20544;-65
2022/03/25 07:21:43;;;;;;;109.50;48.70;;;;;;;;;;5043391;28;20185;-65
2022/03/25 07:24:09;;;;;;;121.03;50.53;;;;;;;;;;5044052;28;20201;-66
2022/03/25 07:26:35;;;;;;;117.07;49.23;;;;;;;;;;5046600;28;20197;-66
2022/03/25 07:29:01;;;;;;;120.20;51.63;;;;;;;;;;5040999;28;20182;-66
2022/03/25 07:31:28;;;;;;;132.50;51.63;;;;;;;;;;5041875;28;20216;-66
2022/03/25 07:33:57;;;;;;;124.50;51.30;;;;;;;;;;5043185;28;20195;-65
2022/03/25 07:36:23;;;;;;;127.13;52.70;;;;;;;;;;5043274;28;20189;-65
2022/03/25 07:38:48;;;;;;;119.97;49.50;;;;;;;;;;5034057;28;20524;-65
2022/03/25 07:41:13;;;;;;;118.60;49.97;;;;;;;;;;5042281;28;20181;-65
2022/03/25 07:43:39;;;;;;;127.27;51.67;;;;;;;;;;5039948;28;20204;-65
2022/03/25 07:46:05;;;;;;;113.40;51.60;;;;;;;;;;5037293;28;20217;-65
2022/03/25 07:48:30;;;;;;;117.53;50.07;;;;;;;;;;5042212;28;20212;-65
2022/03/25 07:50:56;;;;;;;118.97;50.30;;;;;;;;;;5036182;28;20177;-67
2022/03/25 07:53:21;;;;;;;114.73;50.73;;;;;;;;;;5041038;28;20211;-66
2022/03/25 07:55:50;;;;;;;112.40;50.83;;;;;;;;;;5038170;28;20644;-66
2022/03/25 07:58:19;;;;;;;112.40;49.50;;;;;;;;;;5037584;28;20174;-66
2022/03/25 08:00:47;;;;;;;111.23;48.20;;;;;;;;;;5025867;28;20174;-66
2022/03/25 08:03:13;;;;;;;117.23;50.67;;;;;;;;;;5028546;28;20197;-65
2022/03/25 08:05:38;;;;;;;106.20;48.10;;;;;;;;;;5045040;28;20210;-65
2022/03/25 08:08:04;;;;;;;107.93;50.77;;;;;;;;;;5045630;28;20684;-66
2022/03/25 08:10:31;;;;;;;114.37;51.23;;;;;;;;;;5040881;28;20268;-65
2022/03/25 08:12:57;;;;;;;106.70;51.03;;;;;;;;;;5041598;28;20283;-66
2022/03/25 08:15:27;;;;;;;111.00;50.93;;;;;;;;;;5043442;28;20189;-65
2022/03/25 08:18:00;;;;;;;106.10;48.20;;;;;;;;;;5037123;28;20608;-67
2022/03/25 08:20:28;;;;;;;99.50;48.33;;;;;;;;;;5038402;28;20632;-66
2022/03/25 08:22:56;;;;;;;103.57;49.07;;;;;;;;;;5033494;28;20208;-66
2022/03/25 08:28:05;;;;;;;101.03;47.97;;;;;;;;;;5044172;28;20315;-65
2022/03/25 08:30:32;;;;;;;94.07;47.73;;;;;;;;;;5041477;28;20240;-66
2022/03/25 08:32:58;;;;;;;100.17;49.33;;;;;;;;;;5033984;28;20367;-66
2022/03/25 08:35:27;;;;;;;102.67;49.37;;;;;;;;;;5023008;28;20621;-65
2022/03/25 08:37:53;;;;;;;97.93;47.53;;;;;;;;;;5029424;28;20255;-66
2022/03/25 08:40:22;;;;;;;98.33;47.47;;;;;;;;;;5038810;28;20648;-65
2022/03/25 08:42:47;;;;;;;97.87;46.80;;;;;;;;;;5041052;28;20742;-65
2022/03/25 08:45:15;;;;;;;100.97;48.03;;;;;;;;;;5040498;28;20354;-66
2022/03/25 08:47:41;;;;;;;94.97;47.33;;;;;;;;;;5041214;28;20198;-66
2022/03/25 08:50:09;;;;;;;103.80;49.50;;;;;;;;;;5040290;28;20209;-66
2022/03/25 08:52:35;;;;;;;94.63;46.47;;;;;;;;;;5046094;28;20625;-66
2022/03/25 08:55:00;;;;;;;94.73;48.23;;;;;;;;;;5042586;28;20192;-64
2022/03/25 08:57:26;;;;;;;91.70;47.70;;;;;;;;;;5046276;28;20185;-65
2022/03/25 08:59:51;;;;;;;95.88;47.17;;;;;;;;;;5041157;28;20185;-65
2022/03/25 09:02:17;;;;;;;95.93;47.33;;;;;;;;;;5042498;28;20233;-66
2022/03/25 09:04:44;;;;;;;93.68;46.20;;;;;;;;;;5042142;28;20668;-65
2022/03/25 09:07:10;;;;;;;95.28;46.72;;;;;;;;;;5043181;28;20724;-65
2022/03/25 09:09:36;;;;;;;91.47;45.75;;;;;;;;;;5041535;28;20277;-65
2022/03/25 09:12:01;;;;;;;90.32;45.20;;;;;;;;;;5044070;28;20340;-65
2022/03/25 09:14:26;;;;;;;89.07;46.67;;;;;;;;;;5039617;28;20391;-65
2022/03/25 09:16:52;;;;;;;85.25;44.38;;;;;;;;;;5045316;28;20220;-65
2022/03/25 09:19:17;;;;;;;92.53;46.35;;;;;;;;;;5037199;28;20632;-67
2022/03/25 09:21:42;;;;;;;94.93;46.85;;;;;;;;;;5039394;28;20327;-66
2022/03/25 09:24:07;;;;;;;87.38;45.78;;;;;;;;;;5044471;28;20181;-65
2022/03/25 09:26:34;;;;;;;89.53;44.55;;;;;;;;;;5044812;28;20251;-65
2022/03/25 09:29:00;;;;;;;92.60;45.78;;;;;;;;;;5043277;28;20178;-65
2022/03/25 09:31:25;;;;;;;89.15;43.92;;;;;;;;;;5033118;28;20212;-65
2022/03/25 09:33:50;;;;;;;82.72;44.10;;;;;;;;;;5032076;28;20200;-65
2022/03/25 09:36:15;;;;;;;88.65;46.83;;;;;;;;;;5035820;28;20177;-66
2022/03/25 09:38:41;;;;;;;80.50;43.40;;;;;;;;;;5038492;28;20890;-66
2022/03/25 09:41:07;;;;;;;83.95;42.42;;;;;;;;;;5036517;28;20177;-66
2022/03/25 09:43:34;;;;;;;86.07;44.22;;;;;;;;;;5037003;28;20258;-66
2022/03/25 09:46:00;;;;;;;84.03;44.92;;;;;;;;;;5041174;28;20275;-66
2022/03/25 09:48:25;;;;;;;86.55;43.45;;;;;;;;;;5043183;28;20273;-67
2022/03/25 09:50:51;;;;;;;85.53;45.63;;;;;;;;;;5042775;28;20209;-66
2022/03/25 09:53:16;;;;;;;86.03;45.30;;;;;;;;;;5044651;28;20816;-66
2022/03/25 09:55:44;;;;;;;80.40;42.63;;;;;;;;;;5039505;28;20218;-66
2022/03/25 09:58:22;;;;;;;82.47;44.85;;;;;;;;;;5042668;28;20220;-66
2022/03/25 10:00:50;;;;;;;85.35;44.40;;;;;;;;;;5037289;28;20184;-65
2022/03/25 10:03:26;;;;;;;78.22;42.42;;;;;;;;;;5039741;28;20190;-65
2022/03/25 10:05:57;;;;;;;84.85;43.45;;;;;;;;;;5017872;28;20200;-66
2022/03/25 10:08:30;;;;;;;79.07;41.25;;;;;;;;;;5031436;28;20547;-67
2022/03/25 10:10:55;;;;;;;77.32;41.88;;;;;;;;;;5024254;28;20193;-66
2022/03/25 10:13:20;;;;;;;80.50;42.33;;;;;;;;;;5034804;28;20236;-66
2022/03/25 10:15:46;;;;;;;83.47;43.15;;;;;;;;;;5038457;28;20625;-67
2022/03/25 10:18:11;;;;;;;79.95;42.95;;;;;;;;;;5040584;28;20197;-66
2022/03/25 10:20:39;;;;;;;84.27;48.40;;;;;;;;;;5037767;28;20929;-66
2022/03/25 10:23:13;;;;;;;87.65;44.70;;;;;;;;;;5042601;28;20221;-66
2022/03/25 10:25:47;;;;;;;79.68;43.45;;;;;;;;;;5034653;28;20232;-65
2022/03/25 10:28:26;;;;;;;81.28;44.10;;;;;;;;;;5037063;28;20497;-66
2022/03/25 10:30:53;;;;;;;84.68;43.42;;;;;;;;;;5037765;28;20216;-65
2022/03/25 10:33:36;;;;;;;83.07;43.20;;;;;;;;;;5042603;28;20480;-66
2022/03/25 10:36:08;;;;;;;79.68;43.00;;;;;;;;;;5031301;28;20250;-67
2022/03/25 10:39:11;;;;;;;84.78;42.63;;;;;;;;;;5042390;28;20522;-66
2022/03/25 10:41:40;;;;;;;88.28;43.85;;;;;;;;;;5021007;28;20764;-66
2022/03/25 10:44:08;;;;;;;83.47;41.17;;;;;;;;;;5040008;28;20177;-67
2022/03/25 10:46:41;;;;;;;77.75;41.13;;;;;;;;;;5036649;28;20205;-66
2022/03/25 10:49:17;;;;;;;80.53;40.38;;;;;;;;;;5040761;28;20318;-66
2022/03/25 10:52:04;;;;;;;82.78;41.85;;;;;;;;;;5035592;28;20180;-66
2022/03/25 10:54:29;;;;;;;79.25;41.70;;;;;;;;;;5044692;28;20230;-66
2022/03/25 10:56:57;;;;;;;72.70;39.47;;;;;;;;;;5039785;28;20177;-66
2022/03/25 10:59:25;;;;;;;69.53;36.88;;;;;;;;;;5040452;28;20186;-65
2022/03/25 11:01:53;;;;;;;71.90;37.35;;;;;;;;;;5038680;28;20184;-66
2022/03/25 11:04:19;;;;;;;69.68;37.38;;;;;;;;;;5042700;28;20529;-66
2022/03/25 11:06:46;;;;;;;71.88;37.78;;;;;;;;;;5040739;28;20212;-66
2022/03/25 11:09:13;;;;;;;71.72;38.30;;;;;;;;;;5038385;28;20182;-66
2022/03/25 11:11:41;;;;;;;73.55;39.38;;;;;;;;;;5038364;28;20192;-65
2022/03/25 11:14:08;;;;;;;76.03;38.90;;;;;;;;;;5034449;28;20743;-65
2022/03/25 11:16:38;;;;;;;72.30;39.85;;;;;;;;;;5043132;28;20170;-65
2022/03/25 11:19:06;;;;;;;72.05;37.17;;;;;;;;;;5038918;28;20296;-66
2022/03/25 11:21:33;;;;;;;70.97;38.25;;;;;;;;;;5037794;28;20216;-66
2022/03/25 11:24:03;;;;;;;65.55;36.10;;;;;;;;;;5037491;28;20178;-66
2022/03/25 11:26:29;;;;;;;71.70;37.90;;;;;;;;;;5024385;28;20191;-66
2022/03/25 11:28:59;;;;;;;70.85;37.72;;;;;;;;;;5032612;28;20185;-66
2022/03/25 11:31:25;;;;;;;71.88;36.50;;;;;;;;;;5042489;28;20193;-66
2022/03/25 11:34:09;;;;;;;60.97;32.10;;;;;;;;;;5037509;28;20189;-66
2022/03/25 11:36:36;;;;;;;58.75;32.83;;;;;;;;;;5029471;28;20555;-66
2022/03/25 11:39:24;;;;;;;63.75;33.60;;;;;;;;;;5025273;28;20214;-67
2022/03/25 11:42:02;;;;;;;61.38;33.83;;;;;;;;;;5028728;28;20181;-66
2022/03/25 11:44:29;;;;;;;63.85;34.25;;;;;;;;;;5032665;28;20204;-66
2022/03/25 11:47:00;;;;;;;60.95;34.13;;;;;;;;;;5027507;28;20748;-66
2022/03/25 11:49:31;;;;;;;63.70;35.17;;;;;;;;;;5035373;28;20185;-66
2022/03/25 11:51:56;;;;;;;63.13;34.53;;;;;;;;;;5032624;28;20630;-66
2022/03/25 11:54:40;;;;;;;67.53;35.10;;;;;;;;;;5032532;28;20185;-66
2022/03/25 11:57:20;;;;;;;56.03;31.52;;;;;;;;;;5025641;28;20267;-66
2022/03/25 11:59:51;;;;;;;64.35;34.05;;;;;;;;;;5028027;28;20463;-66
2022/03/25 12:02:29;;;;;;;58.47;31.92;;;;;;;;;;5027791;28;20340;-66
2022/03/25 12:04:55;;;;;;;56.80;32.25;;;;;;;;;;5033597;28;20703;-66
2022/03/25 12:07:20;;;;;;;57.95;32.78;;;;;;;;;;5040142;28;20209;-66
2022/03/25 12:09:46;;;;;;;58.35;32.65;;;;;;;;;;5036858;28;20182;-66
2022/03/25 12:12:12;;;;;;;59.30;32.58;;;;;;;;;;5040371;28;20189;-66
2022/03/25 12:15:05;;;;;;;57.65;31.83;;;;;;;;;;5034018;28;20581;-66
2022/03/25 12:17:30;;;;;;;60.28;32.45;;;;;;;;;;5028915;28;20180;-65
2022/03/25 12:19:56;;;;;;;56.28;31.45;;;;;;;;;;5031916;28;20178;-65
2022/03/25 12:22:21;;;;;;;56.20;32.05;;;;;;;;;;5028680;28;20224;-65
2022/03/25 12:24:49;;;;;;;62.97;34.22;;;;;;;;;;5031324;28;20324;-66
2022/03/25 12:27:15;;;;;;;52.40;30.05;;;;;;;;;;5022924;28;20213;-66
2022/03/25 12:29:42;;;;;;;55.45;29.88;;;;;;;;;;5022857;28;20186;-66
2022/03/25 12:32:12;;;;;;;48.00;27.35;;;;;;;;;;5020886;28;20194;-66
2022/03/25 12:34:59;;;;;;;52.75;29.10;;;;;;;;;;5027171;28;20198;-66
2022/03/25 12:37:27;;;;;;;48.58;25.30;;;;;;;;;;5014098;28;20689;-66
2022/03/25 12:39:52;;;;;;;49.05;26.15;;;;;;;;;;5030185;28;20436;-66
2022/03/25 12:42:18;;;;;;;50.08;26.80;;;;;;;;;;5028298;28;20914;-66
2022/03/25 12:44:43;;;;;;;49.47;27.50;;;;;;;;;;5030626;28;20598;-66
2022/03/25 12:47:15;;;;;;;77.97;35.00;;;;;;;;;;5027104;28;20455;-66
2022/03/25 12:49:40;;;;;;;43.53;23.40;;;;;;;;;;5037451;28;20690;-66
2022/03/25 12:52:06;;;;;;;44.05;23.48;;;;;;;;;;5032075;28;20178;-66
2022/03/25 12:54:34;;;;;;;48.03;23.27;;;;;;;;;;5040537;28;20194;-66
2022/03/25 12:57:02;;;;;;;47.40;26.48;;;;;;;;;;5017736;28;20183;-67
2022/03/25 12:59:28;;;;;;;50.42;27.75;;;;;;;;;;5047969;28;20185;-66
2022/03/25 13:01:53;;;;;;;51.15;27.13;;;;;;;;;;5026285;28;20182;-66
2022/03/25 13:04:28;;;;;;;48.38;25.83;;;;;;;;;;5043912;28;20188;-66
2022/03/25 13:07:07;;;;;;;52.60;24.88;;;;;;;;;;5035306;28;20224;-67
2022/03/25 13:09:32;;;;;;;46.10;26.35;;;;;;;;;;5029230;28;20208;-65
2022/03/25 13:12:02;;;;;;;47.58;25.00;;;;;;;;;;5025954;28;20193;-65
2022/03/25 13:14:27;;;;;;;39.28;22.27;;;;;;;;;;5017061;28;20221;-67
2022/03/25 13:16:52;;;;;;;44.90;24.02;;;;;;;;;;5031203;28;20190;-67
2022/03/25 13:19:28;;;;;;;45.40;24.75;;;;;;;;;;5028621;28;20201;-66
2022/03/25 13:21:54;;;;;;;47.63;26.70;;;;;;;;;;5026700;28;20190;-66
2022/03/25 13:24:19;;;;;;;45.63;24.45;;;;;;;;;;5037365;28;20637;-66
2022/03/25 13:26:45;;;;;;;40.13;22.23;;;;;;;;;;5035353;28;20193;-65
2022/03/25 13:29:11;;;;;;;44.47;21.17;;;;;;;;;;5032935;28;20222;-66
2022/03/25 13:31:36;;;;;;;45.78;23.48;;;;;;;;;;5041756;28;20697;-65
2022/03/25 13:34:02;;;;;;;48.88;24.55;;;;;;;;;;5041504;28;20190;-66
2022/03/25 13:36:36;;;;;;;42.08;22.83;;;;;;;;;;5018663;28;20211;-66
2022/03/25 13:39:10;;;;;;;34.38;19.55;;;;;;;;;;5023745;28;20276;-67
2022/03/25 13:41:35;;;;;;;29.35;16.45;;;;;;;;;;5031541;28;20644;-65
2022/03/25 13:44:09;;;;;;;37.80;17.45;;;;;;;;;;5031719;28;20182;-66
2022/03/25 13:46:35;;;;;;;33.13;17.67;;;;;;;;;;5026685;28;20289;-66
2022/03/25 13:49:03;;;;;;;35.72;18.75;;;;;;;;;;5030982;28;20288;-66
2022/03/25 13:51:31;;;;;;;33.63;18.42;;;;;;;;;;5023853;28;20641;-67
2022/03/25 13:53:59;;;;;;;33.40;18.15;;;;;;;;;;5023864;28;20257;-66
2022/03/25 13:56:24;;;;;;;31.63;16.10;;;;;;;;;;5024337;28;20189;-66
2022/03/25 13:58:53;;;;;;;34.40;14.65;;;;;;;;;;5021703;28;20174;-67
2022/03/25 14:01:29;;;;;;;31.23;14.00;;;;;;;;;;5036211;28;20645;-66
2022/03/25 14:04:13;;;;;;;35.72;15.88;;;;;;;;;;5022350;28;20178;-66
2022/03/25 14:06:41;;;;;;;31.60;16.25;;;;;;;;;;5024223;28;20274;-66
2022/03/25 14:09:26;;;;;;;38.40;17.15;;;;;;;;;;5025955;28;20585;-66
2022/03/25 14:11:51;;;;;;;36.70;17.52;;;;;;;;;;5014038;28;20181;-66
2022/03/25 14:14:27;;;;;;;31.58;16.23;;;;;;;;;;5020983;28;20233;-66